createdAt,value
2022-10-22T00:01:58.435Z,102341.34
2022-10-22T00:04:26.475Z,102340.50
2022-10-22T00:06:54.392Z,102342.06
2022-10-22T00:09:22.166Z,102321.25
2022-10-22T00:11:49.638Z,102342.75
2022-10-22T00:14:17.263Z,102339.00
2022-10-22T00:16:44.727Z,102334.25
2022-10-22T00:19:13.626Z,102339.16
2022-10-22T00:21:41.046Z,102340.13
2022-10-22T00:24:08.636Z,102344.44
2022-10-22T00:26:36.073Z,102348.03
2022-10-22T00:29:03.562Z,102347.50
2022-10-22T00:31:31.221Z,102356.97
2022-10-22T00:33:58.646Z,102356.72
2022-10-22T00:36:26.099Z,102357.41
2022-10-22T00:38:53.718Z,102364.66
2022-10-22T00:41:21.178Z,102362.13
2022-10-22T00:44:05.683Z,102363.09
2022-10-22T00:46:33.291Z,102362.53
2022-10-22T00:49:04.366Z,102366.28
2022-10-22T00:51:36.057Z,102374.22
2022-10-22T00:54:07.773Z,102363.34
2022-10-22T00:56:35.262Z,102369.19
2022-10-22T00:59:03.639Z,102367.53
2022-10-22T01:01:32.352Z,102372.69
2022-10-22T01:04:00.409Z,102368.22
2022-10-22T01:06:31.698Z,102374.34
2022-10-22T01:09:37.720Z,102372.56
2022-10-22T01:12:15.237Z,102385.06
2022-10-22T01:14:48.358Z,102392.41
2022-10-22T01:17:25.485Z,102386.28
2022-10-22T01:20:22.848Z,102379.88
2022-10-22T01:23:14.139Z,102395.31
2022-10-22T01:26:09.749Z,102400.06
2022-10-22T01:28:37.106Z,102401.00
2022-10-22T01:31:06.420Z,102406.44
2022-10-22T01:33:34.756Z,102399.59
2022-10-22T01:36:04.795Z,102393.59
2022-10-22T01:38:32.968Z,102404.16
2022-10-22T01:41:01.442Z,102395.56
2022-10-22T01:43:28.923Z,102419.47
2022-10-22T01:46:02.315Z,102424.19
2022-10-22T01:48:51.144Z,102422.00
2022-10-22T01:51:47.309Z,102422.00
2022-10-22T01:54:38.993Z,102424.63
2022-10-22T01:57:33.794Z,102427.28
2022-10-22T02:00:10.280Z,102429.94
2022-10-22T02:05:25.674Z,102444.47
2022-10-22T02:08:01.937Z,102450.03
2022-10-22T02:10:31.572Z,102445.84
2022-10-22T02:13:01.551Z,102453.50
2022-10-22T02:15:52.153Z,102454.22
2022-10-22T02:18:24.728Z,102436.13
2022-10-22T02:20:52.287Z,102454.50
2022-10-22T02:23:21.485Z,102456.16
2022-10-22T02:25:56.542Z,102445.28
2022-10-22T02:28:39.393Z,102462.56
2022-10-22T02:31:21.901Z,102461.44
2022-10-22T02:33:53.731Z,102457.28
2022-10-22T02:36:23.140Z,102463.38
2022-10-22T02:38:51.958Z,102466.03
2022-10-22T02:41:20.593Z,102464.06
2022-10-22T02:43:55.911Z,102462.44
2022-10-22T02:46:24.868Z,102465.06
2022-10-22T02:48:52.309Z,102470.47
2022-10-22T02:51:19.726Z,102472.16
2022-10-22T02:53:47.109Z,102469.53
2022-10-22T02:56:14.792Z,102475.66
2022-10-22T02:58:42.225Z,102464.97
2022-10-22T03:01:12.370Z,102478.97
2022-10-22T03:03:42.738Z,102480.66
2022-10-22T03:06:10.167Z,102479.94
2022-10-22T03:08:37.652Z,102491.22
2022-10-22T03:11:05.115Z,102475.19
2022-10-22T03:13:32.626Z,102495.66
2022-10-22T03:16:00.133Z,102488.56
2022-10-22T03:18:27.584Z,102496.78
2022-10-22T03:21:24.819Z,102495.09
2022-10-22T03:23:52.790Z,102498.97
2022-10-22T03:26:20.804Z,102509.53
2022-10-22T03:28:48.970Z,102502.44
2022-10-22T03:31:16.513Z,102499.50
2022-10-22T03:33:43.916Z,102519.00
2022-10-22T03:36:11.489Z,102526.81
2022-10-22T03:38:40.478Z,102530.56
2022-10-22T03:41:08.498Z,102528.16
2022-10-22T03:43:38.298Z,102533.06
2022-10-22T03:46:06.012Z,102534.75
2022-10-22T03:48:33.519Z,102535.44
2022-10-22T03:51:00.942Z,102536.03
2022-10-22T03:53:28.336Z,102539.38
2022-10-22T03:55:55.857Z,102547.44
2022-10-22T03:58:23.334Z,102551.50
2022-10-22T04:00:50.889Z,102563.75
2022-10-22T04:03:18.309Z,102562.78
2022-10-22T04:05:45.712Z,102560.72
2022-10-22T04:08:13.156Z,102559.63
2022-10-22T04:10:40.570Z,102558.06
2022-10-22T04:13:07.946Z,102570.91
2022-10-22T04:15:35.407Z,102572.84
2022-10-22T04:18:02.831Z,102570.66
2022-10-22T04:20:30.287Z,102579.03
2022-10-22T04:22:57.682Z,102580.72
2022-10-22T04:25:25.206Z,102578.78
2022-10-22T04:27:52.634Z,102594.13
2022-10-22T04:30:20.051Z,102576.03
2022-10-22T04:32:47.617Z,102599.72
2022-10-22T04:35:15.469Z,102602.00
2022-10-22T04:37:43.470Z,102571.53
2022-10-22T04:40:12.164Z,102600.78
2022-10-22T04:42:39.722Z,102603.28
2022-10-22T04:45:07.823Z,102601.47
2022-10-22T04:47:35.409Z,102607.03
2022-10-22T04:50:02.958Z,102610.41
2022-10-22T04:52:31.967Z,102618.66
2022-10-22T04:54:59.397Z,102621.88
2022-10-22T04:57:31.271Z,102642.06
2022-10-22T04:59:58.783Z,102637.47
2022-10-22T05:02:26.552Z,102628.00
2022-10-22T05:04:54.002Z,102645.16
2022-10-22T05:07:21.496Z,102639.16
2022-10-22T05:09:48.992Z,102659.22
2022-10-22T05:12:16.480Z,102648.53
2022-10-22T05:14:44.820Z,102652.44
2022-10-22T05:17:12.738Z,102658.19
2022-10-22T05:19:40.168Z,102659.59
2022-10-22T05:22:07.582Z,102657.78
2022-10-22T05:24:37.058Z,102655.41
2022-10-22T05:27:04.676Z,102674.38
2022-10-22T05:29:35.554Z,102672.69
2022-10-22T05:32:02.991Z,102681.94
2022-10-22T05:34:30.814Z,102689.75
2022-10-22T05:36:58.296Z,102688.09
2022-10-22T05:39:25.729Z,102695.06
2022-10-22T05:41:54.196Z,102696.75
2022-10-22T05:44:21.730Z,102685.56
2022-10-22T05:46:49.350Z,102696.44
2022-10-22T05:49:17.220Z,102687.38
2022-10-22T05:51:46.546Z,102697.63
2022-10-22T05:54:19.376Z,102700.72
2022-10-22T05:56:50.067Z,102702.13
2022-10-22T05:59:17.546Z,102693.47
2022-10-22T06:01:45.075Z,102702.56
2022-10-22T06:04:13.866Z,102699.06
2022-10-22T06:06:47.953Z,102710.00
2022-10-22T06:09:31.183Z,102713.88
2022-10-22T06:11:59.412Z,102706.00
2022-10-22T06:14:27.373Z,102717.47
2022-10-22T06:16:55.387Z,102719.41
2022-10-22T06:19:29.552Z,102725.31
2022-10-22T06:21:58.154Z,102725.59
2022-10-22T06:24:25.525Z,102720.75
2022-10-22T06:26:53.158Z,102724.00
2022-10-22T06:29:22.099Z,102726.22
2022-10-22T06:31:50.157Z,102723.06
2022-10-22T06:34:20.895Z,102729.38
2022-10-22T06:36:48.558Z,102729.66
2022-10-22T06:39:18.133Z,102711.97
2022-10-22T06:41:46.007Z,102726.75
2022-10-22T06:44:19.675Z,102712.53
2022-10-22T06:46:52.289Z,102723.56
2022-10-22T06:49:21.195Z,102732.94
2022-10-22T06:51:53.811Z,102733.63
2022-10-22T06:54:22.581Z,102735.84
2022-10-22T06:56:50.195Z,102734.88
2022-10-22T06:59:18.280Z,102738.94
2022-10-22T07:01:45.896Z,102732.66
2022-10-22T07:04:13.431Z,102738.13
2022-10-22T07:06:40.894Z,102735.06
2022-10-22T07:09:08.582Z,102737.31
2022-10-22T07:11:44.542Z,102737.31
2022-10-22T07:14:13.018Z,102737.88
2022-10-22T07:16:45.869Z,102743.97
2022-10-22T07:19:13.869Z,102726.44
2022-10-22T07:21:41.535Z,102730.94
2022-10-22T07:24:09.554Z,102725.66
2022-10-22T07:26:39.886Z,102733.34
2022-10-22T07:29:07.670Z,102738.22
2022-10-22T07:31:35.181Z,102723.00
2022-10-22T07:34:02.664Z,102733.06
2022-10-22T07:36:30.212Z,102730.56
2022-10-22T07:39:00.178Z,102725.81
2022-10-22T07:41:32.343Z,102733.50
2022-10-22T07:44:00.225Z,102729.88
2022-10-22T07:46:28.258Z,102727.22
2022-10-22T07:48:55.894Z,102724.56
2022-10-22T07:51:25.514Z,102733.50
2022-10-22T07:53:53.208Z,102735.44
2022-10-22T07:56:22.172Z,102734.47
2022-10-22T07:58:52.753Z,102737.84
2022-10-22T08:01:22.794Z,102736.03
2022-10-22T08:05:05.037Z,102734.22
2022-10-22T08:07:32.508Z,102741.31
2022-10-22T08:10:00.023Z,102750.69
2022-10-22T08:12:27.524Z,102737.41
2022-10-22T08:14:55.091Z,102749.00
2022-10-22T08:17:22.569Z,102740.16
2022-10-22T08:19:50.049Z,102746.19
2022-10-22T08:22:17.439Z,102749.84
2022-10-22T08:24:44.998Z,102746.91
2022-10-22T08:27:12.821Z,102742.69
2022-10-22T08:29:40.401Z,102750.09
2022-10-22T08:32:07.826Z,102749.94
2022-10-22T08:34:35.652Z,102753.59
2022-10-22T08:37:03.921Z,102744.25
2022-10-22T08:39:31.377Z,102747.44
2022-10-22T08:42:23.219Z,102747.03
2022-10-22T08:44:53.334Z,102746.06
2022-10-22T08:47:39.387Z,102745.94
2022-10-22T08:50:12.575Z,102761.66
2022-10-22T08:52:44.812Z,102756.19
2022-10-22T08:55:18.133Z,102751.88
2022-10-22T08:57:54.570Z,102745.69
2022-10-22T09:00:56.162Z,102762.59
2022-10-22T09:03:46.359Z,102760.78
2022-10-22T09:06:19.062Z,102761.31
2022-10-22T09:08:47.984Z,102766.34
2022-10-22T09:11:24.371Z,102754.00
2022-10-22T09:17:19.683Z,102752.28
2022-10-22T09:20:06.197Z,102755.28
2022-10-22T09:22:58.551Z,102758.56
2022-10-22T09:25:29.521Z,102754.63
2022-10-22T09:28:00.425Z,102740.81
2022-10-22T09:30:30.556Z,102746.06
2022-10-22T09:33:11.578Z,102740.16
2022-10-22T09:35:56.627Z,102739.31
2022-10-22T09:38:28.507Z,102742.53
2022-10-22T09:40:59.927Z,102733.09
2022-10-22T09:43:29.021Z,102733.78
2022-10-22T09:45:59.468Z,102737.91
2022-10-22T09:48:41.072Z,102729.16
2022-10-22T09:52:00.028Z,102740.50
2022-10-22T09:54:33.180Z,102739.19
2022-10-22T09:57:21.757Z,102737.22
2022-10-22T09:59:53.980Z,102740.44
2022-10-22T10:02:38.120Z,102747.09
2022-10-22T10:05:07.846Z,102749.38
2022-10-22T10:07:36.838Z,102740.44
2022-10-22T10:10:28.018Z,102746.84
2022-10-22T10:13:11.975Z,102745.31
2022-10-22T10:15:52.974Z,102744.06
2022-10-22T10:19:01.332Z,102746.97
2022-10-22T10:21:49.791Z,102742.50
2022-10-22T10:24:27.846Z,102749.06
2022-10-22T10:27:30.370Z,102746.13
2022-10-22T10:30:18.967Z,102736.91
2022-10-22T10:33:01.709Z,102736.78
2022-10-22T10:35:44.517Z,102733.91
2022-10-22T10:38:25.931Z,102734.03
2022-10-22T10:41:40.946Z,102731.53
2022-10-22T10:44:37.266Z,102729.13
2022-10-22T10:47:19.427Z,102729.84
2022-10-22T10:49:48.058Z,102727.56
2022-10-22T10:52:45.698Z,102715.38
2022-10-22T10:55:49.614Z,102721.50
2022-10-22T10:58:26.807Z,102725.69
2022-10-22T11:00:58.618Z,102723.69
2022-10-22T11:03:57.993Z,102712.41
2022-10-22T11:06:26.830Z,102716.47
2022-10-22T11:09:03.762Z,102714.00
2022-10-22T11:11:39.065Z,102712.13
2022-10-22T11:14:20.187Z,102710.47
2022-10-22T11:17:01.924Z,102708.50
2022-10-22T11:19:51.191Z,102700.03
2022-10-22T11:22:44.379Z,102695.78
2022-10-22T11:25:18.101Z,102696.94
2022-10-22T11:28:11.321Z,102702.50
2022-10-22T11:30:43.398Z,102692.53
2022-10-22T11:33:16.047Z,102688.81
2022-10-22T11:35:45.448Z,102694.28
2022-10-22T11:38:16.666Z,102701.66
2022-10-22T11:41:18.997Z,102698.72
2022-10-22T11:43:56.457Z,102699.25
2022-10-22T11:46:23.904Z,102698.78
2022-10-22T11:49:08.446Z,102696.88
2022-10-22T11:51:40.073Z,102700.59
2022-10-22T11:54:32.325Z,102704.72
2022-10-22T11:57:14.911Z,102701.84
2022-10-22T11:59:48.183Z,102702.81
2022-10-22T12:02:29.618Z,102702.03
2022-10-22T12:05:22.659Z,102705.69
2022-10-22T12:08:00.406Z,102712.47
2022-10-22T12:10:55.860Z,102717.91
2022-10-22T12:13:32.603Z,102715.16
2022-10-22T12:16:04.822Z,102710.06
2022-10-22T12:18:41.641Z,102711.78
2022-10-22T12:21:15.154Z,102710.94
2022-10-22T12:23:44.977Z,102710.84
2022-10-22T12:26:27.731Z,102708.09
2022-10-22T12:29:04.794Z,102715.66
2022-10-22T12:31:37.465Z,102717.94
2022-10-22T12:34:15.012Z,102717.44
2022-10-22T12:36:43.658Z,102713.97
2022-10-22T12:39:20.808Z,102717.59
2022-10-22T12:41:49.007Z,102720.53
2022-10-22T12:44:18.317Z,102719.00
2022-10-22T12:46:52.937Z,102708.84
2022-10-22T12:49:29.285Z,102712.50
2022-10-22T12:52:04.203Z,102705.84
2022-10-22T12:54:34.481Z,102708.91
2022-10-22T12:57:02.657Z,102716.97
2022-10-22T12:59:45.901Z,102718.75
2022-10-22T13:02:26.457Z,102714.44
2022-10-22T13:05:20.917Z,102712.06
2022-10-22T13:07:52.095Z,102716.81
2022-10-22T13:10:42.432Z,102721.25
2022-10-22T13:13:31.116Z,102727.72
2022-10-22T13:16:24.598Z,102727.31
2022-10-22T13:18:53.274Z,102734.31
2022-10-22T13:21:28.526Z,102731.78
2022-10-22T13:23:59.931Z,102732.88
2022-10-22T13:26:36.550Z,102729.00
2022-10-22T13:29:12.523Z,102730.84
2022-10-22T13:31:46.765Z,102723.06
2022-10-22T13:34:21.529Z,102738.75
2022-10-22T13:36:49.932Z,102731.44
2022-10-22T13:39:22.440Z,102735.84
2022-10-22T13:41:51.431Z,102732.78
2022-10-22T13:44:19.971Z,102727.91
2022-10-22T13:46:49.955Z,102731.81
2022-10-22T13:49:20.693Z,102736.72
2022-10-22T13:51:48.254Z,102732.97
2022-10-22T13:54:22.218Z,102731.97
2022-10-22T13:56:59.333Z,102737.00
2022-10-22T13:59:26.741Z,102726.78
2022-10-22T14:01:55.083Z,102728.06
2022-10-22T14:04:22.556Z,102734.31
2022-10-22T14:06:50.056Z,102733.34
2022-10-22T14:09:18.412Z,102736.25
2022-10-22T14:11:45.836Z,102735.06
2022-10-22T14:14:17.447Z,102723.91
2022-10-22T14:16:45.137Z,102728.34
2022-10-22T14:19:16.882Z,102732.06
2022-10-22T14:21:44.497Z,102745.56
2022-10-22T14:24:13.251Z,102737.44
2022-10-22T14:26:41.358Z,102737.41
2022-10-22T14:29:10.182Z,102743.50
2022-10-22T14:31:44.324Z,102744.84
2022-10-22T14:34:14.564Z,102751.53
2022-10-22T14:36:44.277Z,102754.06
2022-10-22T14:39:13.093Z,102745.91
2022-10-22T14:41:41.428Z,102743.78
2022-10-22T14:44:14.609Z,102745.97
2022-10-22T14:46:44.631Z,102747.47
2022-10-22T14:49:12.494Z,102752.75
2022-10-22T14:51:39.913Z,102753.41
2022-10-22T14:54:07.339Z,102761.00
2022-10-22T14:56:34.873Z,102754.56
2022-10-22T14:59:02.284Z,102756.50
2022-10-22T15:03:21.184Z,102760.38
2022-10-22T15:04:32.752Z,102766.63
2022-10-22T15:07:00.195Z,102772.88
2022-10-22T15:09:27.627Z,102770.47
2022-10-22T15:11:55.422Z,102771.69
2022-10-22T15:14:22.963Z,102770.88
2022-10-22T15:16:50.387Z,102771.97
2022-10-22T15:19:17.801Z,102775.56
2022-10-22T15:21:45.271Z,102769.44
2022-10-22T15:24:12.712Z,102777.50
2022-10-22T15:26:40.278Z,102774.13
2022-10-22T15:29:07.740Z,102778.84
2022-10-22T15:31:57.985Z,102772.97
2022-10-22T15:34:31.648Z,102779.47
2022-10-22T15:37:01.750Z,102780.91
2022-10-22T15:39:29.795Z,102793.53
2022-10-22T15:41:57.680Z,102797.25
2022-10-22T15:44:28.536Z,102795.34
2022-10-22T15:46:57.088Z,102785.38
2022-10-22T15:52:09.372Z,102783.81
2022-10-22T15:54:37.079Z,102788.66
2022-10-22T15:57:08.715Z,102793.09
2022-10-22T15:59:36.671Z,102789.63
2022-10-22T16:02:04.223Z,102797.78
2022-10-22T16:04:31.796Z,102799.59
2022-10-22T16:07:00.110Z,102801.78
2022-10-22T16:09:28.110Z,102803.47
2022-10-22T16:11:56.586Z,102806.47
2022-10-22T16:14:24.378Z,102808.38
2022-10-22T16:16:54.603Z,102809.22
2022-10-22T16:19:24.499Z,102813.31
2022-10-22T16:21:54.736Z,102817.28
2022-10-22T16:24:23.110Z,102814.28
2022-10-22T16:26:50.776Z,102811.88
2022-10-22T16:29:21.106Z,102812.59
2022-10-22T16:31:48.900Z,102812.72
2022-10-22T16:34:17.187Z,102815.25
2022-10-22T16:36:44.833Z,102811.66
2022-10-22T16:39:12.386Z,102806.59
2022-10-22T16:41:40.176Z,102813.94
2022-10-22T16:44:09.026Z,102803.00
2022-10-22T16:46:39.783Z,102804.34
2022-10-22T16:49:23.731Z,102802.41
2022-10-22T16:51:51.205Z,102791.59
2022-10-22T16:54:18.778Z,102801.69
2022-10-22T16:56:46.214Z,102801.69
2022-10-22T16:59:13.607Z,102797.34
2022-10-22T17:01:41.654Z,102802.88
2022-10-22T17:04:11.520Z,102795.06
2022-10-22T17:06:42.105Z,102798.78
2022-10-22T17:09:11.027Z,102795.44
2022-10-22T17:11:41.312Z,102798.19
2022-10-22T17:14:10.433Z,102804.78
2022-10-22T17:16:37.834Z,102802.13
2022-10-22T17:19:05.719Z,102799.00
2022-10-22T17:21:34.256Z,102793.97
2022-10-22T17:24:01.857Z,102797.56
2022-10-22T17:26:29.382Z,102795.78
2022-10-22T17:28:56.956Z,102792.78
2022-10-22T17:31:25.415Z,102799.50
2022-10-22T17:33:55.202Z,102792.31
2022-10-22T17:36:24.189Z,102802.88
2022-10-22T17:38:56.237Z,102805.03
2022-10-22T17:41:28.105Z,102798.81
2022-10-22T17:43:56.774Z,102788.59
2022-10-22T17:46:26.463Z,102787.88
2022-10-22T17:48:56.507Z,102784.50
2022-10-22T17:51:25.401Z,102781.50
2022-10-22T17:53:53.057Z,102776.22
2022-10-22T17:56:26.351Z,102778.13
2022-10-22T17:58:54.440Z,102777.28
2022-10-22T18:01:23.715Z,102780.78
2022-10-22T18:03:52.679Z,102783.41
2022-10-22T18:06:20.422Z,102785.34
2022-10-22T18:08:48.124Z,102777.41
2022-10-22T18:11:21.067Z,102780.44
2022-10-22T18:13:56.876Z,102775.72
2022-10-22T18:16:25.010Z,102784.16
2022-10-22T18:18:55.101Z,102773.56
2022-10-22T18:21:24.609Z,102771.06
2022-10-22T18:23:52.759Z,102778.63
2022-10-22T18:26:24.362Z,102770.81
2022-10-22T18:28:54.729Z,102780.91
2022-10-22T18:31:26.675Z,102774.78
2022-10-22T18:33:55.908Z,102760.59
2022-10-22T18:36:25.782Z,102764.31
2022-10-22T18:39:03.464Z,102758.91
2022-10-22T18:41:33.061Z,102759.75
2022-10-22T18:44:02.846Z,102754.25
2022-10-22T18:46:32.529Z,102762.19
2022-10-22T18:49:00.434Z,102766.63
2022-10-22T18:51:33.316Z,102765.53
2022-10-22T18:54:05.895Z,102764.22
2022-10-22T18:56:45.747Z,102773.09
2022-10-22T18:59:19.681Z,102773.56
2022-10-22T19:01:47.184Z,102771.91
2022-10-22T19:04:15.031Z,102774.31
2022-10-22T19:06:45.585Z,102776.94
2022-10-22T19:09:17.810Z,102775.03
2022-10-22T19:11:45.741Z,102767.81
2022-10-22T19:14:15.091Z,102785.34
2022-10-22T19:16:42.630Z,102783.91
2022-10-22T19:19:10.126Z,102782.13
2022-10-22T19:21:38.755Z,102768.06
2022-10-22T19:24:06.578Z,102762.41
2022-10-22T19:26:34.627Z,102775.00
2022-10-22T19:29:03.290Z,102779.09
2022-10-22T19:31:31.524Z,102787.75
2022-10-22T19:34:02.616Z,102784.16
2022-10-22T19:36:32.823Z,102767.56
2022-10-22T19:39:00.994Z,102776.22
2022-10-22T19:41:30.103Z,102779.09
2022-10-22T19:43:58.957Z,102781.41
2022-10-22T19:46:28.435Z,102775.00
2022-10-22T19:48:57.538Z,102778.13
2022-10-22T19:51:27.958Z,102772.13
2022-10-22T19:54:19.037Z,102780.16
2022-10-22T19:56:47.364Z,102774.88
2022-10-22T19:59:16.832Z,102777.63
2022-10-22T20:01:44.388Z,102771.50
2022-10-22T20:04:15.840Z,102768.03
2022-10-22T20:06:43.766Z,102772.34
2022-10-22T20:09:14.175Z,102776.56
2022-10-22T20:11:42.560Z,102767.78
2022-10-22T20:14:10.030Z,102753.75
2022-10-22T20:16:38.592Z,102765.66
2022-10-22T20:19:07.715Z,102757.44
2022-10-22T20:21:35.632Z,102762.72
2022-10-22T20:24:04.332Z,102757.22
2022-10-22T20:26:31.974Z,102746.63
2022-10-22T20:28:59.743Z,102751.44
2022-10-22T20:31:29.593Z,102756.84
2022-10-22T20:33:58.894Z,102755.06
2022-10-22T20:36:27.591Z,102746.16
2022-10-22T20:39:00.692Z,102755.16
2022-10-22T20:41:28.563Z,102752.22
2022-10-22T20:43:56.106Z,102738.78
2022-10-22T20:46:31.986Z,102735.50
2022-10-22T20:49:02.214Z,102746.78
2022-10-22T20:51:30.087Z,102738.88
2022-10-22T20:54:01.717Z,102741.97
2022-10-22T20:56:29.219Z,102737.13
2022-10-22T20:59:05.145Z,102729.94
2022-10-22T21:01:45.162Z,102727.03
2022-10-22T21:04:13.231Z,102727.03
2022-10-22T21:06:43.736Z,102730.66
2022-10-22T21:09:14.735Z,102732.78
2022-10-22T21:11:43.685Z,102734.22
2022-10-22T21:14:13.334Z,102737.16
2022-10-22T21:16:43.338Z,102728.56
2022-10-22T21:19:10.890Z,102723.81
2022-10-22T21:21:38.392Z,102721.06
2022-10-22T21:24:05.955Z,102714.53
2022-10-22T21:26:36.370Z,102723.06
2022-10-22T21:29:03.969Z,102720.16
2022-10-22T21:31:31.559Z,102713.06
2022-10-22T21:33:59.003Z,102716.28
2022-10-22T21:36:26.573Z,102711.97
2022-10-22T21:38:57.632Z,102706.69
2022-10-22T21:41:27.800Z,102701.94
2022-10-22T21:43:55.374Z,102710.59
2022-10-22T21:46:25.478Z,102705.59
2022-10-22T21:48:54.948Z,102712.53
2022-10-22T21:51:23.806Z,102710.47
2022-10-22T21:56:35.256Z,102701.44
2022-10-22T21:59:04.859Z,102713.06
2022-10-22T22:01:33.095Z,102703.75
2022-10-22T22:04:00.978Z,102702.75
2022-10-22T22:06:33.445Z,102705.41
2022-10-22T22:09:03.489Z,102701.94
2022-10-22T22:11:31.647Z,102699.44
2022-10-22T22:13:59.758Z,102704.31
2022-10-22T22:16:30.480Z,102699.03
2022-10-22T22:21:39.755Z,102699.19
2022-10-22T22:24:08.869Z,102704.25
2022-10-22T22:26:36.882Z,102702.56
2022-10-22T22:29:05.707Z,102707.72
2022-10-22T22:31:35.085Z,102694.63
2022-10-22T22:34:08.100Z,102697.13
2022-10-22T22:36:38.714Z,102697.97
2022-10-22T22:39:08.210Z,102697.25
2022-10-22T22:41:38.388Z,102691.25
2022-10-22T22:44:06.048Z,102688.91
2022-10-22T22:46:33.641Z,102678.69
2022-10-22T22:49:01.221Z,102682.44
2022-10-22T22:51:28.696Z,102683.84
2022-10-22T22:53:58.336Z,102677.84
2022-10-22T22:56:28.552Z,102670.34
2022-10-22T22:58:56.434Z,102676.22
2022-10-22T23:01:25.786Z,102678.00
2022-10-22T23:03:57.681Z,102667.97
2022-10-22T23:06:31.923Z,102674.09
2022-10-22T23:09:00.130Z,102669.66
2022-10-22T23:11:28.964Z,102668.69
2022-10-22T23:13:59.456Z,102664.34
2022-10-22T23:16:30.310Z,102662.53
2022-10-22T23:19:01.497Z,102658.81
2022-10-22T23:21:35.472Z,102659.78
2022-10-22T23:24:05.906Z,102660.59
2022-10-22T23:26:39.938Z,102660.19
2022-10-22T23:29:11.518Z,102653.09
2022-10-22T23:31:39.146Z,102658.25
2022-10-22T23:34:07.599Z,102648.88
2022-10-22T23:36:37.372Z,102651.03
2022-10-22T23:39:11.006Z,102652.84
2022-10-22T23:41:38.819Z,102654.50
2022-10-22T23:44:07.525Z,102642.38
2022-10-22T23:46:35.640Z,102648.97
2022-10-22T23:49:03.067Z,102641.81
2022-10-22T23:51:30.526Z,102647.56
2022-10-22T23:54:04.806Z,102638.91
2022-10-22T23:56:33.143Z,102644.22
2022-10-22T23:59:00.906Z,102638.19
